Time;durP1;ratioP1;P1;durP2;ratioP2;P2;SDS_P1;SDS_P2;PMS_P1;PMS_P2;Temp;Humidity;BMP_temperature;BMP_pressure;BME280_temperature;BME280_humidity;BME280_pressure;Samples;Min_cycle;Max_cycle;Signal;HPM_P1;HPM_P2
2023/01/21 00:02:16;;;;;;;0.00;0.00;;;0.60;99.90;;;;;;5062572;28;20193;-80
2023/01/21 00:04:42;;;;;;;0.10;0.10;;;0.60;99.90;;;;;;5062002;28;20268;-80
2023/01/21 00:07:07;;;;;;;0.10;0.10;;;0.60;99.90;;;;;;5062956;28;20296;-80
2023/01/21 00:09:33;;;;;;;0.10;0.10;;;0.60;99.90;;;;;;5063589;28;20184;-81
2023/01/21 00:12:02;;;;;;;0.10;0.10;;;0.60;99.90;;;;;;5063155;28;20262;-80
2023/01/21 00:14:29;;;;;;;0.40;0.40;;;0.60;99.90;;;;;;5062831;28;20244;-80
2023/01/21 00:16:55;;;;;;;0.10;0.10;;;0.60;99.90;;;;;;5062118;28;20209;-80
2023/01/21 00:19:20;;;;;;;0.10;0.10;;;0.60;99.90;;;;;;5063514;28;20956;-81
2023/01/21 00:21:46;;;;;;;0.10;0.10;;;0.60;99.90;;;;;;5061849;28;20196;-80
2023/01/21 00:24:11;;;;;;;0.83;0.83;;;0.70;99.90;;;;;;5064366;28;20202;-79
2023/01/21 00:26:37;;;;;;;3.23;3.13;;;0.60;99.90;;;;;;5064707;28;20193;-81
2023/01/21 00:29:03;;;;;;;1.10;1.03;;;0.70;99.90;;;;;;5065117;28;20193;-80
2023/01/21 00:31:28;;;;;;;0.10;0.10;;;0.70;99.90;;;;;;5065420;28;20235;-80
2023/01/21 00:33:54;;;;;;;0.10;0.10;;;0.60;99.90;;;;;;5063648;28;20669;-80
2023/01/21 00:36:21;;;;;;;0.10;0.10;;;0.70;99.90;;;;;;5063915;28;20185;-80
2023/01/21 00:38:49;;;;;;;0.10;0.10;;;0.70;99.90;;;;;;5066817;28;20255;-81
2023/01/21 00:41:16;;;;;;;0.10;0.10;;;0.60;99.90;;;;;;5065077;28;20926;-80
2023/01/21 00:43:42;;;;;;;0.10;0.10;;;0.70;99.90;;;;;;5062369;28;20268;-81
2023/01/21 00:46:09;;;;;;;0.07;0.07;;;0.60;99.90;;;;;;5061438;28;20200;-81
2023/01/21 00:48:35;;;;;;;0.10;0.10;;;0.60;99.90;;;;;;5063092;28;20338;-80
2023/01/21 00:51:01;;;;;;;0.07;0.07;;;0.60;99.90;;;;;;5062899;28;20212;-80
2023/01/21 00:53:29;;;;;;;0.10;0.10;;;0.60;99.90;;;;;;5064036;28;20537;-80
2023/01/21 00:55:59;;;;;;;0.10;0.10;;;0.60;99.90;;;;;;5061864;28;20207;-81
2023/01/21 00:58:24;;;;;;;0.10;0.10;;;0.60;99.90;;;;;;5062209;28;20198;-81
2023/01/21 01:00:50;;;;;;;0.10;0.10;;;0.60;99.90;;;;;;5058117;28;20196;-80
2023/01/21 01:03:15;;;;;;;0.10;0.10;;;0.60;99.90;;;;;;5061496;28;20201;-80
2023/01/21 01:05:41;;;;;;;0.10;0.10;;;0.70;99.90;;;;;;5061130;28;20189;-80
2023/01/21 01:08:06;;;;;;;0.00;0.00;;;0.70;99.90;;;;;;5061597;28;20213;-80
2023/01/21 01:10:32;;;;;;;0.00;0.00;;;0.70;99.90;;;;;;5061125;28;20682;-80
2023/01/21 01:12:59;;;;;;;0.10;0.10;;;0.70;99.90;;;;;;5059640;28;20186;-80
2023/01/21 01:15:24;;;;;;;0.10;0.10;;;0.70;99.90;;;;;;5060661;28;20188;-80
2023/01/21 01:17:50;;;;;;;0.10;0.10;;;0.70;99.90;;;;;;5059410;28;20223;-80
2023/01/21 01:20:15;;;;;;;0.10;0.10;;;0.70;99.90;;;;;;5059047;28;20189;-80
2023/01/21 01:22:41;;;;;;;0.07;0.07;;;0.70;99.90;;;;;;5061195;28;20197;-80
2023/01/21 01:25:07;;;;;;;0.00;0.00;;;0.70;99.90;;;;;;5063598;28;20182;-80
2023/01/21 01:27:32;;;;;;;0.10;0.10;;;0.70;99.90;;;;;;5063983;28;20206;-80
2023/01/21 01:29:58;;;;;;;0.00;0.00;;;0.60;99.90;;;;;;5062720;28;20181;-81
2023/01/21 01:32:23;;;;;;;0.10;0.10;;;0.70;99.90;;;;;;5063713;28;20193;-80
2023/01/21 01:34:49;;;;;;;0.10;0.10;;;0.60;99.90;;;;;;5064087;28;20997;-80
2023/01/21 01:37:14;;;;;;;0.10;0.10;;;0.60;99.90;;;;;;5063676;28;20208;-80
2023/01/21 01:39:40;;;;;;;0.10;0.10;;;0.60;99.90;;;;;;5062619;28;20200;-80
2023/01/21 01:42:12;;;;;;;0.07;0.07;;;0.60;99.90;;;;;;5065970;28;20243;-80
2023/01/21 01:44:53;;;;;;;0.10;0.10;;;0.60;99.90;;;;;;5063324;28;20185;-80
2023/01/21 01:47:20;;;;;;;0.00;0.00;;;0.60;99.90;;;;;;5063602;28;20204;-81
2023/01/21 01:49:46;;;;;;;0.10;0.10;;;0.60;99.90;;;;;;5063141;28;20674;-80
2023/01/21 01:52:13;;;;;;;0.00;0.00;;;0.60;99.90;;;;;;5063619;28;20208;-80
2023/01/21 01:54:43;;;;;;;0.10;0.10;;;0.60;99.90;;;;;;5062741;28;20177;-80
2023/01/21 01:57:12;;;;;;;0.10;0.10;;;0.60;99.90;;;;;;5061560;28;20221;-80
2023/01/21 01:59:38;;;;;;;0.00;0.00;;;0.60;99.90;;;;;;5059495;28;20280;-80
2023/01/21 02:02:07;;;;;;;0.00;0.00;;;0.60;99.90;;;;;;5059076;28;20189;-80
2023/01/21 02:05:02;;;;;;;0.10;0.10;;;0.50;99.90;;;;;;5061258;28;20282;-81
2023/01/21 02:07:31;;;;;;;0.10;0.10;;;0.50;99.90;;;;;;5059664;28;20213;-80
2023/01/21 02:09:57;;;;;;;0.63;0.63;;;0.40;99.90;;;;;;5062166;28;20736;-81
2023/01/21 02:12:23;;;;;;;0.07;0.07;;;0.40;99.90;;;;;;5063255;28;20177;-80
2023/01/21 02:14:49;;;;;;;0.10;0.10;;;0.40;99.90;;;;;;5059349;28;20196;-81
2023/01/21 02:17:35;;;;;;;0.00;0.00;;;0.40;99.90;;;;;;5062340;28;20706;-80
2023/01/21 02:20:22;;;;;;;0.10;0.10;;;0.30;99.90;;;;;;5062467;28;20541;-81
2023/01/21 02:23:11;;;;;;;0.10;0.10;;;0.30;99.90;;;;;;5060561;28;20192;-80
2023/01/21 02:25:57;;;;;;;0.67;0.67;;;0.20;99.90;;;;;;5061041;28;20181;-81
2023/01/21 02:28:41;;;;;;;11.77;10.73;;;0.10;99.90;;;;;;5063944;28;20201;-81
2023/01/21 02:31:36;;;;;;;0.10;0.10;;;0.10;99.90;;;;;;5063705;28;20239;-81
2023/01/21 02:34:24;;;;;;;0.10;0.10;;;0.10;99.90;;;;;;5063848;28;20208;-81
2023/01/21 02:37:08;;;;;;;0.10;0.10;;;0.10;99.90;;;;;;5064521;28;20185;-80
2023/01/21 02:39:47;;;;;;;0.10;0.10;;;0.00;99.90;;;;;;5063919;28;20178;-80
2023/01/21 02:42:35;;;;;;;0.20;0.20;;;0.00;99.90;;;;;;5062822;28;20179;-80
2023/01/21 02:45:10;;;;;;;0.10;0.10;;;-0.10;99.90;;;;;;5062287;28;20231;-81
2023/01/21 02:47:59;;;;;;;0.10;0.10;;;-0.20;99.90;;;;;;5062706;28;20204;-80
2023/01/21 02:50:33;;;;;;;0.00;0.00;;;-0.20;99.90;;;;;;5064619;28;20216;-80
2023/01/21 02:53:00;;;;;;;0.10;0.10;;;-0.30;99.90;;;;;;5062428;28;20204;-80
2023/01/21 02:55:36;;;;;;;0.10;0.10;;;-0.40;99.90;;;;;;5062826;28;20273;-80
2023/01/21 02:58:09;;;;;;;0.10;0.10;;;-0.40;99.90;;;;;;5060908;28;20251;-81
2023/01/21 03:01:01;;;;;;;0.10;0.10;;;-0.50;99.90;;;;;;5061235;28;20203;-81
2023/01/21 03:03:38;;;;;;;0.10;0.10;;;-0.50;99.90;;;;;;5062394;28;20197;-80
2023/01/21 03:06:27;;;;;;;0.10;0.10;;;-0.60;99.90;;;;;;5063590;28;20200;-81
2023/01/21 03:09:07;;;;;;;0.10;0.10;;;-0.60;99.90;;;;;;5064683;28;20217;-80
2023/01/21 03:11:33;;;;;;;0.10;0.10;;;-0.60;99.90;;;;;;5066738;28;20204;-80
2023/01/21 03:17:31;;;;;;;0.10;0.10;;;-0.70;99.90;;;;;;5065474;28;20185;-81
2023/01/21 03:20:06;;;;;;;0.10;0.10;;;-0.80;99.90;;;;;;5042560;28;20193;-80
2023/01/21 03:22:34;;;;;;;0.10;0.10;;;-0.80;99.90;;;;;;5065140;28;20187;-80
2023/01/21 03:25:01;;;;;;;0.00;0.00;;;-0.90;99.90;;;;;;5063028;28;20710;-81
2023/01/21 03:27:29;;;;;;;0.10;0.10;;;-0.90;99.90;;;;;;5066886;28;20570;-81
2023/01/21 03:30:04;;;;;;;0.10;0.10;;;-0.90;99.90;;;;;;5062162;28;20188;-81
2023/01/21 03:32:33;;;;;;;0.10;0.10;;;-1.00;99.90;;;;;;5063654;28;20656;-80
2023/01/21 03:35:02;;;;;;;0.10;0.10;;;-1.00;99.90;;;;;;5062770;28;20583;-81
2023/01/21 03:37:36;;;;;;;0.10;0.10;;;-1.10;99.90;;;;;;5065180;28;20228;-80
2023/01/21 03:40:22;;;;;;;0.10;0.10;;;-1.10;99.90;;;;;;5063574;28;20181;-80
2023/01/21 03:42:49;;;;;;;0.10;0.10;;;-1.10;99.90;;;;;;5082107;28;21133;-81
2023/01/21 03:45:18;;;;;;;0.10;0.10;;;-1.20;99.90;;;;;;5063026;28;20311;-81
2023/01/21 03:47:49;;;;;;;0.10;0.10;;;-1.20;99.90;;;;;;5064985;28;20339;-81
2023/01/21 03:50:35;;;;;;;0.10;0.10;;;-1.20;99.90;;;;;;5062385;28;20299;-78
2023/01/21 03:53:01;;;;;;;0.10;0.10;;;-1.20;99.90;;;;;;5061364;28;20188;-78
2023/01/21 03:55:27;;;;;;;0.10;0.10;;;-1.30;99.90;;;;;;5062411;28;20186;-78
2023/01/21 03:57:52;;;;;;;0.00;0.00;;;-1.30;99.90;;;;;;5061716;28;20201;-78
2023/01/21 04:00:18;;;;;;;0.00;0.00;;;-1.40;99.90;;;;;;5060267;28;20201;-77
2023/01/21 04:02:43;;;;;;;0.10;0.10;;;-1.30;99.90;;;;;;5052615;28;20193;-78
2023/01/21 04:05:09;;;;;;;0.00;0.00;;;-1.40;99.90;;;;;;5060283;28;20189;-78
2023/01/21 04:07:35;;;;;;;0.10;0.10;;;-1.30;99.90;;;;;;5062278;28;20732;-78
2023/01/21 04:10:00;;;;;;;0.00;0.00;;;-1.40;99.90;;;;;;5062562;28;20761;-78
2023/01/21 04:12:26;;;;;;;0.10;0.10;;;-1.50;99.90;;;;;;5061488;28;20237;-78
2023/01/21 04:14:51;;;;;;;0.07;0.07;;;-1.40;99.90;;;;;;5064084;28;20180;-79
2023/01/21 04:17:17;;;;;;;0.10;0.10;;;-1.40;99.90;;;;;;5063503;28;20216;-78
2023/01/21 04:19:42;;;;;;;0.10;0.10;;;-1.40;99.90;;;;;;5062063;28;20614;-78
2023/01/21 04:22:08;;;;;;;5.50;5.00;;;-1.40;99.90;;;;;;5059499;28;20204;-78
2023/01/21 04:24:33;;;;;;;0.10;0.10;;;-1.40;99.90;;;;;;5061793;28;20188;-78
2023/01/21 04:26:59;;;;;;;0.10;0.10;;;-1.40;99.90;;;;;;5063610;28;20201;-79
2023/01/21 04:29:24;;;;;;;0.10;0.10;;;-1.40;99.90;;;;;;5063999;28;20193;-78
2023/01/21 04:31:50;;;;;;;0.10;0.10;;;-1.40;99.90;;;;;;5063394;28;20216;-78
2023/01/21 04:34:15;;;;;;;0.30;0.30;;;-1.50;99.90;;;;;;5064223;28;20181;-78
2023/01/21 04:36:41;;;;;;;0.10;0.10;;;-1.50;99.90;;;;;;5063774;28;20642;-79
2023/01/21 04:39:07;;;;;;;0.03;0.03;;;-1.50;99.90;;;;;;5062152;28;20671;-78
2023/01/21 04:41:32;;;;;;;0.10;0.10;;;-1.50;99.90;;;;;;5065723;28;20190;-78
2023/01/21 04:43:59;;;;;;;0.10;0.10;;;-1.50;99.90;;;;;;5062878;28;20201;-78
2023/01/21 04:46:24;;;;;;;0.10;0.10;;;-1.60;99.90;;;;;;5063650;28;20222;-78
2023/01/21 04:48:50;;;;;;;0.10;0.10;;;-1.60;99.90;;;;;;5063489;28;20301;-78
2023/01/21 04:51:15;;;;;;;0.10;0.10;;;-1.60;99.90;;;;;;5063488;28;20217;-78
2023/01/21 04:53:41;;;;;;;0.10;0.10;;;-1.70;99.90;;;;;;5062611;28;20197;-79
2023/01/21 04:56:06;;;;;;;0.10;0.10;;;-1.70;99.90;;;;;;5062530;28;20173;-78
2023/01/21 04:58:33;;;;;;;0.00;0.00;;;-1.70;99.90;;;;;;5059435;28;20208;-78
2023/01/21 05:00:58;;;;;;;0.03;0.03;;;-1.60;99.90;;;;;;5061688;28;20543;-78
2023/01/21 05:03:24;;;;;;;0.10;0.10;;;-1.60;99.90;;;;;;5061586;28;20283;-78
2023/01/21 05:05:50;;;;;;;0.10;0.10;;;-1.60;99.90;;;;;;5056215;28;20283;-78
2023/01/21 05:08:15;;;;;;;0.00;0.00;;;-1.60;99.90;;;;;;5060539;28;20622;-78
2023/01/21 05:10:40;;;;;;;0.00;0.00;;;-1.60;99.90;;;;;;5060071;28;20748;-78
2023/01/21 05:13:06;;;;;;;10.97;10.00;;;-1.70;99.90;;;;;;5062489;28;20185;-78
2023/01/21 05:15:31;;;;;;;0.10;0.10;;;-1.60;99.90;;;;;;5061343;28;20217;-78
2023/01/21 05:17:57;;;;;;;0.00;0.00;;;-1.70;99.90;;;;;;5061134;28;20193;-78
2023/01/21 05:20:22;;;;;;;0.10;0.10;;;-1.80;99.90;;;;;;5060672;28;20673;-78
2023/01/21 05:22:48;;;;;;;0.10;0.10;;;-1.70;99.90;;;;;;5060876;28;21211;-78
2023/01/21 05:25:15;;;;;;;0.10;0.10;;;-1.70;99.90;;;;;;5058846;28;20525;-78
2023/01/21 05:27:41;;;;;;;0.10;0.10;;;-1.70;99.90;;;;;;5060879;28;20289;-78
2023/01/21 05:30:07;;;;;;;0.10;0.10;;;-1.70;99.90;;;;;;5058383;28;20220;-78
2023/01/21 05:32:34;;;;;;;0.00;0.00;;;-1.70;99.90;;;;;;5058926;28;20188;-78
2023/01/21 05:35:00;;;;;;;0.10;0.10;;;-1.70;99.90;;;;;;5060692;28;20230;-78
2023/01/21 05:37:25;;;;;;;0.10;0.10;;;-1.70;99.90;;;;;;5061088;28;20220;-78
2023/01/21 05:39:51;;;;;;;0.00;0.00;;;-1.70;99.90;;;;;;5061085;28;20264;-78
2023/01/21 05:42:16;;;;;;;0.10;0.10;;;-1.80;99.90;;;;;;5058087;28;20199;-78
2023/01/21 05:44:42;;;;;;;0.00;0.00;;;-1.80;99.90;;;;;;5058522;28;20313;-78
2023/01/21 05:47:07;;;;;;;0.10;0.10;;;-1.80;99.90;;;;;;5057763;28;20262;-78
2023/01/21 05:49:33;;;;;;;0.10;0.10;;;-1.80;99.90;;;;;;5061268;28;20209;-78
2023/01/21 05:51:59;;;;;;;0.10;0.10;;;-1.80;99.90;;;;;;5056264;28;21150;-79
2023/01/21 05:54:24;;;;;;;0.10;0.10;;;-1.80;99.90;;;;;;5060512;28;20185;-78
2023/01/21 05:56:50;;;;;;;0.10;0.10;;;-1.90;99.90;;;;;;5059043;28;20181;-78
2023/01/21 05:59:15;;;;;;;0.10;0.10;;;-1.90;99.90;;;;;;5061911;28;20207;-78
2023/01/21 06:01:41;;;;;;;0.10;0.10;;;-1.90;99.90;;;;;;5058040;28;20189;-78
2023/01/21 06:04:06;;;;;;;0.10;0.10;;;-1.90;99.90;;;;;;5061507;28;20199;-78
2023/01/21 06:06:32;;;;;;;0.10;0.10;;;-1.80;99.90;;;;;;5058605;28;20662;-78
2023/01/21 06:08:57;;;;;;;0.10;0.10;;;-1.80;99.90;;;;;;5058051;28;20215;-78
2023/01/21 06:11:23;;;;;;;0.10;0.10;;;-1.80;99.90;;;;;;5059402;28;20212;-78
2023/01/21 06:13:48;;;;;;;0.10;0.10;;;-1.70;99.90;;;;;;5057707;28;20181;-78
2023/01/21 06:16:14;;;;;;;0.10;0.10;;;-1.70;99.90;;;;;;5060464;28;20199;-78
2023/01/21 06:18:39;;;;;;;0.10;0.10;;;-1.70;99.90;;;;;;5060221;28;20197;-77
2023/01/21 06:21:05;;;;;;;0.10;0.10;;;-1.70;99.90;;;;;;5062327;28;20196;-78
2023/01/21 06:23:30;;;;;;;0.10;0.10;;;-1.70;99.90;;;;;;5056856;28;20284;-78
2023/01/21 06:25:59;;;;;;;0.10;0.10;;;-1.70;99.90;;;;;;5061814;28;20628;-78
2023/01/21 06:28:25;;;;;;;0.10;0.10;;;-1.70;99.90;;;;;;5060153;28;20221;-78
2023/01/21 06:30:51;;;;;;;0.10;0.10;;;-1.80;99.90;;;;;;5062138;28;20204;-77
2023/01/21 06:33:16;;;;;;;0.10;0.10;;;-1.80;99.90;;;;;;5061696;28;20196;-77
2023/01/21 06:35:42;;;;;;;0.00;0.00;;;-1.80;99.90;;;;;;5060110;28;20185;-78
2023/01/21 06:38:07;;;;;;;0.10;0.10;;;-1.70;99.90;;;;;;5061447;28;20275;-78
2023/01/21 06:40:33;;;;;;;0.10;0.10;;;-1.70;99.90;;;;;;5063277;28;20216;-78
2023/01/21 06:42:58;;;;;;;0.10;0.10;;;-1.70;99.90;;;;;;5065040;28;20304;-77
2023/01/21 06:45:24;;;;;;;0.10;0.10;;;-1.70;99.90;;;;;;5063851;28;20197;-77
2023/01/21 06:47:49;;;;;;;0.10;0.10;;;-1.60;99.90;;;;;;5061346;28;20215;-78
2023/01/21 06:50:16;;;;;;;0.10;0.10;;;-1.70;99.90;;;;;;5061963;28;20212;-79
2023/01/21 06:52:43;;;;;;;0.10;0.10;;;-1.70;99.90;;;;;;5061521;28;20293;-80
2023/01/21 06:55:09;;;;;;;0.10;0.10;;;-1.80;99.90;;;;;;5059199;28;21136;-79
2023/01/21 06:57:34;;;;;;;0.10;0.10;;;-1.90;99.90;;;;;;5060064;28;20209;-79
2023/01/21 07:00:00;;;;;;;0.10;0.10;;;-1.90;99.90;;;;;;5057615;28;20216;-80
2023/01/21 07:02:26;;;;;;;0.10;0.10;;;-1.80;99.90;;;;;;5059637;28;20216;-79
2023/01/21 07:04:51;;;;;;;0.10;0.10;;;-1.90;99.90;;;;;;5060747;28;20283;-79
2023/01/21 07:07:17;;;;;;;0.10;0.10;;;-2.00;99.90;;;;;;5060400;28;20205;-79
2023/01/21 07:09:45;;;;;;;0.10;0.10;;;-2.00;99.90;;;;;;5056111;28;20205;-79
2023/01/21 07:12:10;;;;;;;0.10;0.10;;;-2.00;99.90;;;;;;5058743;28;20220;-79
2023/01/21 07:14:36;;;;;;;0.10;0.10;;;-2.10;99.90;;;;;;5064272;28;20423;-79
2023/01/21 07:17:01;;;;;;;0.10;0.10;;;-2.10;99.90;;;;;;5063174;28;20197;-79
2023/01/21 07:19:27;;;;;;;0.10;0.10;;;-2.10;99.90;;;;;;5063995;28;20188;-79
2023/01/21 07:21:53;;;;;;;0.10;0.10;;;-2.00;99.90;;;;;;5061492;28;20643;-79
2023/01/21 07:24:19;;;;;;;0.10;0.10;;;-2.00;99.90;;;;;;5062124;28;20191;-79
2023/01/21 07:26:45;;;;;;;0.10;0.10;;;-1.90;99.90;;;;;;5061538;28;20185;-78
2023/01/21 07:29:11;;;;;;;0.10;0.10;;;-1.80;99.90;;;;;;5061484;28;20189;-79
2023/01/21 07:31:37;;;;;;;0.10;0.10;;;-1.80;99.90;;;;;;5060812;28;20209;-79
2023/01/21 07:34:02;;;;;;;0.10;0.10;;;-1.70;99.90;;;;;;5063329;28;20813;-79
2023/01/21 07:36:28;;;;;;;3.60;3.40;;;-1.70;99.90;;;;;;5062651;28;20197;-79
2023/01/21 07:38:54;;;;;;;3.50;3.30;;;-1.60;99.90;;;;;;5062992;28;20203;-80
2023/01/21 07:41:20;;;;;;;0.10;0.10;;;-1.60;99.90;;;;;;5063554;28;20228;-78
2023/01/21 07:43:49;;;;;;;0.10;0.10;;;-1.60;99.90;;;;;;5058755;28;20181;-79
2023/01/21 07:46:16;;;;;;;0.10;0.10;;;-1.50;99.90;;;;;;5061092;28;20270;-80
2023/01/21 07:48:43;;;;;;;0.10;0.10;;;-1.50;99.90;;;;;;5060566;28;20224;-79
2023/01/21 07:51:08;;;;;;;0.10;0.10;;;-1.40;99.90;;;;;;5062742;28;20205;-79
2023/01/21 07:53:34;;;;;;;0.00;0.00;;;-1.40;99.90;;;;;;5061353;28;20192;-80
2023/01/21 07:56:04;;;;;;;0.10;0.10;;;-1.30;99.90;;;;;;5059975;28;20181;-77
2023/01/21 07:58:30;;;;;;;0.10;0.10;;;-1.10;99.90;;;;;;5058511;28;20213;-80
2023/01/21 08:00:55;;;;;;;0.10;0.10;;;-1.00;99.90;;;;;;5060799;28;20249;-79
2023/01/21 08:03:24;;;;;;;0.10;0.10;;;-0.90;99.90;;;;;;5058799;28;20189;-79
2023/01/21 08:05:50;;;;;;;0.10;0.10;;;-0.90;99.90;;;;;;5058186;28;20200;-79
2023/01/21 08:08:17;;;;;;;0.10;0.10;;;-0.80;99.90;;;;;;5056610;28;20702;-79
2023/01/21 08:10:42;;;;;;;0.10;0.10;;;-0.70;99.90;;;;;;5055077;28;20231;-79
2023/01/21 08:13:08;;;;;;;0.00;0.00;;;-0.60;99.90;;;;;;5059184;28;20566;-77
2023/01/21 08:15:33;;;;;;;0.10;0.10;;;-0.50;99.90;;;;;;5056606;28;20255;-78
2023/01/21 08:17:59;;;;;;;0.10;0.10;;;-0.50;99.90;;;;;;5058556;28;20205;-79
2023/01/21 08:20:24;;;;;;;0.10;0.10;;;-0.50;99.90;;;;;;5061675;28;20190;-79
2023/01/21 08:22:50;;;;;;;0.10;0.10;;;-0.50;99.90;;;;;;5064571;28;20189;-79
2023/01/21 08:25:15;;;;;;;0.10;0.10;;;-0.50;99.90;;;;;;5062843;28;20194;-79
2023/01/21 08:27:41;;;;;;;0.10;0.10;;;-0.40;99.90;;;;;;5062781;28;20200;-79
2023/01/21 08:30:07;;;;;;;0.10;0.10;;;-0.20;99.90;;;;;;5063526;28;20185;-78
2023/01/21 08:32:33;;;;;;;0.10;0.10;;;0.00;99.90;;;;;;5063901;28;20248;-79
2023/01/21 08:34:58;;;;;;;0.10;0.10;;;0.10;99.90;;;;;;5065010;28;20269;-79
2023/01/21 08:37:24;;;;;;;0.10;0.10;;;0.10;99.90;;;;;;5062908;28;20212;-77
2023/01/21 08:39:49;;;;;;;0.10;0.10;;;0.10;99.90;;;;;;5064690;28;20182;-82
2023/01/21 08:42:15;;;;;;;0.10;0.10;;;0.00;99.90;;;;;;5066572;28;20592;-82
2023/01/21 08:44:40;;;;;;;0.10;0.10;;;-0.10;99.90;;;;;;5067796;28;20188;-82
2023/01/21 08:47:06;;;;;;;0.10;0.10;;;-0.10;99.90;;;;;;5067058;28;20217;-81
2023/01/21 08:49:31;;;;;;;0.00;0.00;;;-0.40;99.90;;;;;;5066886;28;20185;-81
2023/01/21 08:51:57;;;;;;;0.10;0.10;;;-0.40;99.90;;;;;;5066963;28;20200;-81
2023/01/21 08:54:22;;;;;;;0.10;0.10;;;-0.60;99.90;;;;;;5066187;28;20217;-82
2023/01/21 08:56:48;;;;;;;0.10;0.10;;;-0.50;99.90;;;;;;5068042;28;20181;-82
2023/01/21 08:59:13;;;;;;;0.10;0.10;;;-0.40;99.90;;;;;;5066919;28;20189;-82
2023/01/21 09:01:42;;;;;;;0.10;0.10;;;-0.40;99.90;;;;;;5068954;28;20192;-81
2023/01/21 09:04:08;;;;;;;0.10;0.10;;;-0.30;99.90;;;;;;5066263;28;20181;-82
2023/01/21 09:06:33;;;;;;;0.10;0.10;;;-0.20;99.90;;;;;;5065768;28;20250;-82
2023/01/21 09:08:59;;;;;;;0.00;0.00;;;-0.20;99.90;;;;;;5064915;28;20200;-82
2023/01/21 09:11:27;;;;;;;0.10;0.10;;;-0.20;99.90;;;;;;5065341;28;20213;-81
2023/01/21 09:13:53;;;;;;;0.10;0.10;;;-0.30;99.90;;;;;;5066250;28;20876;-82
2023/01/21 09:16:21;;;;;;;0.10;0.10;;;-0.20;99.90;;;;;;5065343;28;20276;-82
2023/01/21 09:18:48;;;;;;;0.10;0.10;;;-0.30;99.90;;;;;;5063384;28;20265;-82
2023/01/21 09:21:14;;;;;;;0.10;0.10;;;-0.20;99.90;;;;;;5065172;28;20211;-82
2023/01/21 09:23:40;;;;;;;0.10;0.10;;;-0.10;99.90;;;;;;5062617;28;20192;-82
2023/01/21 09:26:15;;;;;;;2.20;2.10;;;-0.10;99.90;;;;;;5062330;28;20208;-81
2023/01/21 09:28:42;;;;;;;0.10;0.10;;;-0.10;99.90;;;;;;5063958;28;20208;-82
2023/01/21 09:31:11;;;;;;;0.10;0.10;;;0.00;99.90;;;;;;5064727;28;20682;-82
2023/01/21 09:33:39;;;;;;;0.10;0.10;;;0.00;99.90;;;;;;5063359;28;20190;-83
2023/01/21 09:36:07;;;;;;;0.00;0.00;;;0.00;99.90;;;;;;5065826;28;20217;-82
2023/01/21 09:38:33;;;;;;;0.10;0.10;;;0.00;99.90;;;;;;5061608;28;20209;-82
2023/01/21 09:41:22;;;;;;;0.10;0.10;;;0.10;99.90;;;;;;5061541;28;20189;-82
2023/01/21 09:44:09;;;;;;;0.03;0.03;;;0.10;99.90;;;;;;5062561;28;20658;-82
2023/01/21 09:46:40;;;;;;;0.10;0.10;;;0.40;99.90;;;;;;5060769;28;20205;-82
2023/01/21 09:49:20;;;;;;;0.10;0.10;;;0.50;99.90;;;;;;5058176;28;20197;-82
2023/01/21 09:51:55;;;;;;;0.10;0.10;;;0.40;99.90;;;;;;5060655;28;20289;-82
2023/01/21 09:54:27;;;;;;;0.10;0.10;;;0.30;99.90;;;;;;5063356;28;20180;-82
2023/01/21 09:57:14;;;;;;;0.10;0.10;;;0.10;99.90;;;;;;5061665;28;20176;-82
2023/01/21 10:00:08;;;;;;;0.10;0.10;;;0.10;99.90;;;;;;5059438;28;20563;-82
2023/01/21 10:02:41;;;;;;;0.10;0.10;;;0.20;99.90;;;;;;5063556;28;20190;-82
2023/01/21 10:05:22;;;;;;;0.10;0.10;;;0.40;99.90;;;;;;5062474;28;20192;-82
2023/01/21 10:08:00;;;;;;;0.10;0.10;;;0.40;99.90;;;;;;5063587;28;20258;-82
2023/01/21 10:10:58;;;;;;;0.10;0.10;;;0.40;99.90;;;;;;5061750;28;20213;-82
2023/01/21 10:13:38;;;;;;;0.10;0.10;;;0.30;99.90;;;;;;5062278;28;20202;-82
2023/01/21 10:16:18;;;;;;;0.10;0.10;;;0.30;99.90;;;;;;5065614;28;20552;-82
2023/01/21 10:18:47;;;;;;;0.10;0.10;;;0.20;99.90;;;;;;5069105;28;20215;-82
2023/01/21 10:21:29;;;;;;;0.10;0.10;;;0.40;99.90;;;;;;5068093;28;20279;-82
2023/01/21 10:24:10;;;;;;;0.43;0.43;;;0.30;99.90;;;;;;5069446;28;20187;-82
2023/01/21 10:26:36;;;;;;;0.00;0.00;;;0.60;99.90;;;;;;5065472;28;20209;-82
2023/01/21 10:29:02;;;;;;;0.10;0.10;;;0.40;99.90;;;;;;5067806;28;20208;-82
2023/01/21 10:31:32;;;;;;;0.10;0.10;;;0.50;99.90;;;;;;5068156;28;20227;-82
2023/01/21 10:33:58;;;;;;;0.10;0.10;;;0.60;99.90;;;;;;5068677;28;20188;-82
2023/01/21 10:36:44;;;;;;;0.00;0.00;;;0.50;99.90;;;;;;5067879;28;20193;-82
2023/01/21 10:39:45;;;;;;;0.10;0.10;;;0.80;99.90;;;;;;5070297;28;20287;-82
2023/01/21 10:42:16;;;;;;;4.53;4.23;;;0.70;99.90;;;;;;5063711;28;20185;-82
2023/01/21 10:44:54;;;;;;;0.10;0.10;;;0.80;99.90;;;;;;5069163;28;20639;-82
2023/01/21 10:47:39;;;;;;;0.10;0.10;;;1.00;99.90;;;;;;5065155;28;20200;-81
2023/01/21 10:50:28;;;;;;;0.10;0.10;;;1.30;99.90;;;;;;5060001;28;20220;-82
2023/01/21 10:53:16;;;;;;;0.10;0.10;;;1.20;99.90;;;;;;5059598;28;20605;-82
2023/01/21 10:55:54;;;;;;;0.10;0.10;;;1.40;99.90;;;;;;5062620;28;20189;-82
2023/01/21 10:58:46;;;;;;;0.10;0.10;;;1.20;99.90;;;;;;5063536;28;20200;-82
2023/01/21 11:01:24;;;;;;;0.10;0.10;;;1.00;99.90;;;;;;5062617;28;20200;-82
2023/01/21 11:03:53;;;;;;;0.10;0.10;;;1.20;99.90;;;;;;5066983;28;20199;-82
2023/01/21 11:06:21;;;;;;;0.20;0.20;;;1.40;99.90;;;;;;5066149;28;20204;-82
2023/01/21 11:08:59;;;;;;;0.10;0.10;;;1.50;99.90;;;;;;5068697;28;20241;-82
2023/01/21 11:11:28;;;;;;;0.10;0.10;;;1.70;99.90;;;;;;5070045;28;20217;-82
2023/01/21 11:13:54;;;;;;;0.10;0.10;;;1.60;99.90;;;;;;5068267;28;20232;-82
2023/01/21 11:16:42;;;;;;;0.10;0.10;;;1.60;99.90;;;;;;5071025;28;20190;-82
2023/01/21 11:19:20;;;;;;;0.10;0.10;;;1.70;99.90;;;;;;5068897;28;20270;-82
2023/01/21 11:22:09;;;;;;;0.30;0.30;;;1.60;99.90;;;;;;5074731;28;20281;-82
2023/01/21 11:24:46;;;;;;;1.03;1.03;;;1.60;99.90;;;;;;5070657;28;20276;-81
2023/01/21 11:27:20;;;;;;;0.10;0.10;;;1.50;99.90;;;;;;5070071;28;20209;-81
2023/01/21 11:29:50;;;;;;;0.10;0.10;;;1.60;99.90;;;;;;5068747;28;20198;-82
2023/01/21 11:32:26;;;;;;;0.10;0.10;;;1.20;99.90;;;;;;5069399;28;20213;-81
2023/01/21 11:35:01;;;;;;;0.10;0.10;;;1.60;99.90;;;;;;5067442;28;20659;-82
2023/01/21 11:37:28;;;;;;;0.10;0.10;;;1.30;99.90;;;;;;5065605;28;20248;-82
2023/01/21 11:39:57;;;;;;;0.10;0.10;;;1.40;99.90;;;;;;5065963;28;20315;-82
2023/01/21 11:42:23;;;;;;;0.40;0.40;;;1.30;99.90;;;;;;5067108;28;20197;-82
2023/01/21 11:44:57;;;;;;;0.33;0.33;;;1.30;99.90;;;;;;5066975;28;20193;-81
2023/01/21 11:47:38;;;;;;;0.10;0.10;;;1.40;99.90;;;;;;5067686;28;20209;-82
2023/01/21 11:50:28;;;;;;;0.10;0.10;;;1.50;99.90;;;;;;5065908;28;20187;-82
2023/01/21 11:53:16;;;;;;;0.10;0.10;;;1.50;99.90;;;;;;5067170;28;20182;-82
2023/01/21 11:55:52;;;;;;;0.00;0.00;;;1.50;99.90;;;;;;5074028;28;20185;-81
2023/01/21 11:58:35;;;;;;;0.00;0.00;;;1.30;99.90;;;;;;5067470;28;20202;-82
2023/01/21 12:01:06;;;;;;;0.10;0.10;;;1.30;99.90;;;;;;5063958;28;20182;-82
2023/01/21 12:03:41;;;;;;;0.07;0.07;;;1.20;99.90;;;;;;5059137;28;20260;-82
2023/01/21 12:06:15;;;;;;;0.10;0.10;;;1.00;99.90;;;;;;5060611;28;20271;-82
2023/01/21 12:08:42;;;;;;;0.00;0.00;;;1.10;99.90;;;;;;5063458;28;20283;-82
2023/01/21 12:11:07;;;;;;;0.10;0.10;;;1.20;99.90;;;;;;5063873;28;20205;-82
2023/01/21 12:13:58;;;;;;;0.10;0.10;;;1.10;99.90;;;;;;5064381;28;20183;-82
2023/01/21 12:16:30;;;;;;;0.10;0.10;;;1.00;99.90;;;;;;5061840;28;20197;-82
2023/01/21 12:19:18;;;;;;;0.10;0.10;;;1.10;99.90;;;;;;5066320;28;20284;-82
2023/01/21 12:21:59;;;;;;;0.10;0.10;;;1.00;99.90;;;;;;5061751;28;20342;-81
2023/01/21 12:24:38;;;;;;;0.10;0.10;;;1.00;99.90;;;;;;5061938;28;20304;-82
2023/01/21 12:27:22;;;;;;;0.00;0.00;;;1.10;99.90;;;;;;5063008;28;20289;-81
2023/01/21 12:30:07;;;;;;;0.30;0.30;;;1.00;99.90;;;;;;5062606;28;20197;-82
2023/01/21 12:32:36;;;;;;;0.00;0.00;;;1.00;99.90;;;;;;5059093;28;20208;-82
2023/01/21 12:35:28;;;;;;;0.10;0.10;;;1.00;99.90;;;;;;5062610;28;20285;-82
2023/01/21 12:38:05;;;;;;;0.10;0.10;;;1.10;99.90;;;;;;5063596;28;20201;-82
2023/01/21 12:40:39;;;;;;;0.10;0.10;;;1.00;99.90;;;;;;5062917;28;20272;-82
2023/01/21 12:43:15;;;;;;;0.10;0.10;;;1.00;99.90;;;;;;5063283;28;20193;-82
2023/01/21 12:45:48;;;;;;;0.30;0.30;;;1.10;99.90;;;;;;5063839;28;20204;-81
2023/01/21 12:48:23;;;;;;;0.10;0.10;;;1.10;99.90;;;;;;5062510;28;20209;-82
2023/01/21 12:50:55;;;;;;;0.00;0.00;;;1.10;99.90;;;;;;5062619;28;20216;-82
2023/01/21 12:53:32;;;;;;;0.10;0.10;;;1.00;99.90;;;;;;5060162;28;20240;-82
2023/01/21 12:56:30;;;;;;;0.10;0.10;;;1.20;99.90;;;;;;5064431;28;20980;-83
2023/01/21 12:59:01;;;;;;;0.10;0.10;;;1.10;99.90;;;;;;5048151;28;20217;-81
2023/01/21 13:01:51;;;;;;;0.00;0.00;;;1.20;99.90;;;;;;5063042;28;20181;-81
2023/01/21 13:04:28;;;;;;;0.77;0.60;;;1.10;99.90;;;;;;5079842;28;20659;-82
2023/01/21 13:07:15;;;;;;;0.00;0.00;;;1.10;99.90;;;;;;5061695;28;20211;-83
2023/01/21 13:10:22;;;;;;;0.10;0.10;;;1.10;99.90;;;;;;5061445;28;20622;-82
2023/01/21 13:13:09;;;;;;;0.00;0.00;;;1.10;99.90;;;;;;5059571;28;20208;-82
2023/01/21 13:15:38;;;;;;;0.10;0.10;;;1.40;99.90;;;;;;5062899;28;20368;-82